sensor_id;sensor_type;location;lat;lon;timestamp;temperature;humidity
7684;DHT22;3884;48.616;12.872;2023-05-14T00:00:21;9.40;1.00
7684;DHT22;3884;48.616;12.872;2023-05-14T00:02:49;9.50;1.00
7684;DHT22;3884;48.616;12.872;2023-05-14T00:05:16;9.50;1.00
7684;DHT22;3884;48.616;12.872;2023-05-14T00:07:43;9.50;99.90
7684;DHT22;3884;48.616;12.872;2023-05-14T00:10:10;9.50;63.50
7684;DHT22;3884;48.616;12.872;2023-05-14T00:12:37;9.40;1.00
7684;DHT22;3884;48.616;12.872;2023-05-14T00:15:05;9.50;1.00
7684;DHT22;3884;48.616;12.872;2023-05-14T00:17:32;9.50;99.90
7684;DHT22;3884;48.616;12.872;2023-05-14T00:20:00;9.60;1.00
7684;DHT22;3884;48.616;12.872;2023-05-14T00:22:27;9.50;92.10
7684;DHT22;3884;48.616;12.872;2023-05-14T00:24:54;9.60;1.00
7684;DHT22;3884;48.616;12.872;2023-05-14T00:27:21;9.40;1.00
7684;DHT22;3884;48.616;12.872;2023-05-14T00:29:48;9.40;1.00
7684;DHT22;3884;48.616;12.872;2023-05-14T00:32:15;9.20;99.90
7684;DHT22;3884;48.616;12.872;2023-05-14T00:34:42;9.20;1.00
7684;DHT22;3884;48.616;12.872;2023-05-14T00:37:10;9.20;99.90
7684;DHT22;3884;48.616;12.872;2023-05-14T00:39:37;9.20;1.00
7684;DHT22;3884;48.616;12.872;2023-05-14T00:42:04;9.30;1.00
7684;DHT22;3884;48.616;12.872;2023-05-14T00:44:31;9.10;1.00
7684;DHT22;3884;48.616;12.872;2023-05-14T00:46:59;9.10;1.00
7684;DHT22;3884;48.616;12.872;2023-05-14T00:49:26;9.00;99.90
7684;DHT22;3884;48.616;12.872;2023-05-14T00:51:54;9.10;1.00
7684;DHT22;3884;48.616;12.872;2023-05-14T00:54:25;9.00;1.00
7684;DHT22;3884;48.616;12.872;2023-05-14T00:56:53;9.10;93.30
7684;DHT22;3884;48.616;12.872;2023-05-14T00:59:20;9.10;1.00
7684;DHT22;3884;48.616;12.872;2023-05-14T01:01:47;9.10;99.90
7684;DHT22;3884;48.616;12.872;2023-05-14T01:04:14;9.10;1.00
7684;DHT22;3884;48.616;12.872;2023-05-14T01:06:49;9.00;1.00
7684;DHT22;3884;48.616;12.872;2023-05-14T01:09:25;9.00;1.00
7684;DHT22;3884;48.616;12.872;2023-05-14T01:11:58;9.00;1.00
7684;DHT22;3884;48.616;12.872;2023-05-14T01:14:33;9.00;1.00
7684;DHT22;3884;48.616;12.872;2023-05-14T01:17:04;8.90;1.00
7684;DHT22;3884;48.616;12.872;2023-05-14T01:19:36;9.00;86.10
7684;DHT22;3884;48.616;12.872;2023-05-14T01:22:04;8.90;97.10
7684;DHT22;3884;48.616;12.872;2023-05-14T01:24:31;8.90;1.00
7684;DHT22;3884;48.616;12.872;2023-05-14T01:27:05;8.80;99.90
7684;DHT22;3884;48.616;12.872;2023-05-14T01:29:35;8.80;99.90
7684;DHT22;3884;48.616;12.872;2023-05-14T01:32:06;8.90;99.90
7684;DHT22;3884;48.616;12.872;2023-05-14T01:34:35;8.90;99.90
7684;DHT22;3884;48.616;12.872;2023-05-14T01:37:04;8.80;99.90
7684;DHT22;3884;48.616;12.872;2023-05-14T01:39:32;8.80;1.00
7684;DHT22;3884;48.616;12.872;2023-05-14T01:42:03;8.80;99.90
7684;DHT22;3884;48.616;12.872;2023-05-14T01:44:31;8.80;99.90
7684;DHT22;3884;48.616;12.872;2023-05-14T01:46:59;8.80;99.90
7684;DHT22;3884;48.616;12.872;2023-05-14T01:49:26;8.70;1.00
7684;DHT22;3884;48.616;12.872;2023-05-14T01:51:53;8.70;99.90
7684;DHT22;3884;48.616;12.872;2023-05-14T01:54:21;8.70;99.90
7684;DHT22;3884;48.616;12.872;2023-05-14T01:56:48;8.70;99.90
7684;DHT22;3884;48.616;12.872;2023-05-14T01:59:16;8.80;99.90
7684;DHT22;3884;48.616;12.872;2023-05-14T02:01:43;8.80;19.40
7684;DHT22;3884;48.616;12.872;2023-05-14T02:04:10;8.70;99.90
7684;DHT22;3884;48.616;12.872;2023-05-14T02:06:40;8.70;99.90
7684;DHT22;3884;48.616;12.872;2023-05-14T02:09:07;8.70;99.90
7684;DHT22;3884;48.616;12.872;2023-05-14T02:11:35;8.70;99.90
7684;DHT22;3884;48.616;12.872;2023-05-14T02:14:02;8.70;36.40
7684;DHT22;3884;48.616;12.872;2023-05-14T02:16:29;8.70;1.00
7684;DHT22;3884;48.616;12.872;2023-05-14T02:18:56;8.60;1.00
7684;DHT22;3884;48.616;12.872;2023-05-14T02:21:23;8.50;12.00
7684;DHT22;3884;48.616;12.872;2023-05-14T02:23:50;8.50;99.90
7684;DHT22;3884;48.616;12.872;2023-05-14T02:26:16;8.50;99.90
7684;DHT22;3884;48.616;12.872;2023-05-14T02:28:45;8.50;1.00
7684;DHT22;3884;48.616;12.872;2023-05-14T02:31:12;8.50;99.90
7684;DHT22;3884;48.616;12.872;2023-05-14T02:33:40;8.50;1.00
7684;DHT22;3884;48.616;12.872;2023-05-14T02:36:07;8.30;99.90
7684;DHT22;3884;48.616;12.872;2023-05-14T02:38:34;8.30;1.00
7684;DHT22;3884;48.616;12.872;2023-05-14T02:41:01;8.30;1.00
7684;DHT22;3884;48.616;12.872;2023-05-14T02:43:28;8.20;99.90
7684;DHT22;3884;48.616;12.872;2023-05-14T02:45:56;8.30;1.00
7684;DHT22;3884;48.616;12.872;2023-05-14T02:48:23;8.20;3.70
7684;DHT22;3884;48.616;12.872;2023-05-14T02:50:50;8.10;99.90
7684;DHT22;3884;48.616;12.872;2023-05-14T02:53:17;8.00;1.00
7684;DHT22;3884;48.616;12.872;2023-05-14T02:55:44;8.10;1.00
7684;DHT22;3884;48.616;12.872;2023-05-14T02:58:11;8.10;99.90
7684;DHT22;3884;48.616;12.872;2023-05-14T03:00:40;8.10;1.00
7684;DHT22;3884;48.616;12.872;2023-05-14T03:03:11;8.10;1.00
7684;DHT22;3884;48.616;12.872;2023-05-14T03:05:37;8.00;1.00
7684;DHT22;3884;48.616;12.872;2023-05-14T03:08:04;7.90;1.00
7684;DHT22;3884;48.616;12.872;2023-05-14T03:10:32;8.00;1.00
7684;DHT22;3884;48.616;12.872;2023-05-14T03:12:58;8.00;1.00
7684;DHT22;3884;48.616;12.872;2023-05-14T03:15:25;8.00;99.90
7684;DHT22;3884;48.616;12.872;2023-05-14T03:17:52;8.00;1.00
7684;DHT22;3884;48.616;12.872;2023-05-14T03:20:22;7.90;99.90
7684;DHT22;3884;48.616;12.872;2023-05-14T03:22:49;7.90;99.90
7684;DHT22;3884;48.616;12.872;2023-05-14T03:25:16;7.90;1.00
7684;DHT22;3884;48.616;12.872;2023-05-14T03:27:43;7.80;99.90
7684;DHT22;3884;48.616;12.872;2023-05-14T03:30:11;7.70;99.90
7684;DHT22;3884;48.616;12.872;2023-05-14T03:32:39;7.50;1.00
7684;DHT22;3884;48.616;12.872;2023-05-14T03:35:07;7.40;99.90
7684;DHT22;3884;48.616;12.872;2023-05-14T03:37:35;7.40;1.00
7684;DHT22;3884;48.616;12.872;2023-05-14T03:40:03;7.40;1.00
7684;DHT22;3884;48.616;12.872;2023-05-14T03:42:30;7.40;1.00
7684;DHT22;3884;48.616;12.872;2023-05-14T03:44:57;7.40;1.00
7684;DHT22;3884;48.616;12.872;2023-05-14T03:47:24;7.50;1.00
7684;DHT22;3884;48.616;12.872;2023-05-14T03:49:50;7.60;1.00
7684;DHT22;3884;48.616;12.872;2023-05-14T03:52:18;7.60;1.00
7684;DHT22;3884;48.616;12.872;2023-05-14T03:54:47;7.50;1.00
7684;DHT22;3884;48.616;12.872;2023-05-14T03:57:14;7.50;1.00
7684;DHT22;3884;48.616;12.872;2023-05-14T03:59:41;7.50;99.90
7684;DHT22;3884;48.616;12.872;2023-05-14T04:02:08;7.50;99.90
7684;DHT22;3884;48.616;12.872;2023-05-14T04:04:35;7.50;99.90
7684;DHT22;3884;48.616;12.872;2023-05-14T04:07:03;7.60;99.90
7684;DHT22;3884;48.616;12.872;2023-05-14T04:09:29;7.60;97.10
7684;DHT22;3884;48.616;12.872;2023-05-14T04:11:58;7.60;99.90
7684;DHT22;3884;48.616;12.872;2023-05-14T04:14:25;7.60;1.00
7684;DHT22;3884;48.616;12.872;2023-05-14T04:16:52;7.60;1.00
7684;DHT22;3884;48.616;12.872;2023-05-14T04:19:20;7.40;99.90
7684;DHT22;3884;48.616;12.872;2023-05-14T04:21:47;7.40;99.90
7684;DHT22;3884;48.616;12.872;2023-05-14T04:24:14;7.40;99.90
7684;DHT22;3884;48.616;12.872;2023-05-14T04:26:41;7.40;99.90
7684;DHT22;3884;48.616;12.872;2023-05-14T04:29:09;7.40;99.90
7684;DHT22;3884;48.616;12.872;2023-05-14T04:31:36;7.40;1.00
7684;DHT22;3884;48.616;12.872;2023-05-14T04:34:04;7.40;1.00
7684;DHT22;3884;48.616;12.872;2023-05-14T04:36:31;7.50;1.00
7684;DHT22;3884;48.616;12.872;2023-05-14T04:38:57;7.60;1.00
7684;DHT22;3884;48.616;12.872;2023-05-14T04:41:25;7.60;1.00
7684;DHT22;3884;48.616;12.872;2023-05-14T04:43:54;7.70;1.00
7684;DHT22;3884;48.616;12.872;2023-05-14T04:46:23;7.80;1.00
7684;DHT22;3884;48.616;12.872;2023-05-14T04:48:50;7.80;46.20
7684;DHT22;3884;48.616;12.872;2023-05-14T04:51:17;7.80;94.10
7684;DHT22;3884;48.616;12.872;2023-05-14T04:53:43;8.00;99.90
7684;DHT22;3884;48.616;12.872;2023-05-14T04:56:11;8.10;99.90
7684;DHT22;3884;48.616;12.872;2023-05-14T04:58:37;8.30;99.90
7684;DHT22;3884;48.616;12.872;2023-05-14T05:01:04;8.30;99.90
7684;DHT22;3884;48.616;12.872;2023-05-14T05:03:33;8.40;99.90
7684;DHT22;3884;48.616;12.872;2023-05-14T05:06:00;8.60;99.90
7684;DHT22;3884;48.616;12.872;2023-05-14T05:08:27;8.60;99.90
7684;DHT22;3884;48.616;12.872;2023-05-14T05:10:54;8.80;99.90
7684;DHT22;3884;48.616;12.872;2023-05-14T05:13:20;8.80;99.90
7684;DHT22;3884;48.616;12.872;2023-05-14T05:15:47;8.90;99.90
7684;DHT22;3884;48.616;12.872;2023-05-14T05:18:14;9.10;99.90
7684;DHT22;3884;48.616;12.872;2023-05-14T05:20:42;9.20;99.90
7684;DHT22;3884;48.616;12.872;2023-05-14T05:23:09;9.30;87.40
7684;DHT22;3884;48.616;12.872;2023-05-14T05:25:36;9.30;9.50
7684;DHT22;3884;48.616;12.872;2023-05-14T05:28:03;9.30;2.60
7684;DHT22;3884;48.616;12.872;2023-05-14T05:30:30;9.40;1.00
7684;DHT22;3884;48.616;12.872;2023-05-14T05:32:57;9.40;1.00
7684;DHT22;3884;48.616;12.872;2023-05-14T05:35:24;9.50;54.00
7684;DHT22;3884;48.616;12.872;2023-05-14T05:37:52;9.60;53.10
7684;DHT22;3884;48.616;12.872;2023-05-14T05:40:19;9.70;65.90
7684;DHT22;3884;48.616;12.872;2023-05-14T05:42:46;9.70;42.60
7684;DHT22;3884;48.616;12.872;2023-05-14T05:45:13;9.80;84.90
7684;DHT22;3884;48.616;12.872;2023-05-14T05:47:40;9.80;90.40
7684;DHT22;3884;48.616;12.872;2023-05-14T05:50:08;9.90;99.90
7684;DHT22;3884;48.616;12.872;2023-05-14T05:52:35;9.90;99.90
7684;DHT22;3884;48.616;12.872;2023-05-14T05:55:05;9.90;99.90
7684;DHT22;3884;48.616;12.872;2023-05-14T05:57:32;9.90;1.00
7684;DHT22;3884;48.616;12.872;2023-05-14T05:59:59;10.00;1.00
7684;DHT22;3884;48.616;12.872;2023-05-14T06:02:38;10.10;1.00
7684;DHT22;3884;48.616;12.872;2023-05-14T06:05:06;10.20;1.00
7684;DHT22;3884;48.616;12.872;2023-05-14T06:07:34;10.30;99.90
7684;DHT22;3884;48.616;12.872;2023-05-14T06:10:01;10.40;1.00
7684;DHT22;3884;48.616;12.872;2023-05-14T06:12:30;10.50;99.90
7684;DHT22;3884;48.616;12.872;2023-05-14T06:14:57;10.70;1.00
7684;DHT22;3884;48.616;12.872;2023-05-14T06:17:24;10.90;1.00
7684;DHT22;3884;48.616;12.872;2023-05-14T06:19:51;11.00;99.90
7684;DHT22;3884;48.616;12.872;2023-05-14T06:22:18;11.10;1.00
7684;DHT22;3884;48.616;12.872;2023-05-14T06:24:46;11.50;99.90
7684;DHT22;3884;48.616;12.872;2023-05-14T06:27:14;11.30;1.00
7684;DHT22;3884;48.616;12.872;2023-05-14T06:29:42;11.20;31.00
7684;DHT22;3884;48.616;12.872;2023-05-14T06:32:09;11.30;1.00
7684;DHT22;3884;48.616;12.872;2023-05-14T06:34:38;11.20;1.00
7684;DHT22;3884;48.616;12.872;2023-05-14T06:37:05;11.40;99.90
7684;DHT22;3884;48.616;12.872;2023-05-14T06:39:32;11.50;1.00
7684;DHT22;3884;48.616;12.872;2023-05-14T06:41:59;11.50;99.90
7684;DHT22;3884;48.616;12.872;2023-05-14T06:44:27;11.60;1.00
7684;DHT22;3884;48.616;12.872;2023-05-14T06:46:55;11.60;1.00
7684;DHT22;3884;48.616;12.872;2023-05-14T06:49:22;11.80;99.90
7684;DHT22;3884;48.616;12.872;2023-05-14T06:51:49;11.70;1.00
7684;DHT22;3884;48.616;12.872;2023-05-14T06:54:16;11.80;99.90
7684;DHT22;3884;48.616;12.872;2023-05-14T06:56:45;11.70;1.00
7684;DHT22;3884;48.616;12.872;2023-05-14T06:59:11;11.80;1.00
7684;DHT22;3884;48.616;12.872;2023-05-14T07:01:38;11.90;1.00
7684;DHT22;3884;48.616;12.872;2023-05-14T07:04:07;11.90;1.00
7684;DHT22;3884;48.616;12.872;2023-05-14T07:06:34;11.90;99.90
7684;DHT22;3884;48.616;12.872;2023-05-14T07:09:01;12.00;1.00
7684;DHT22;3884;48.616;12.872;2023-05-14T07:11:28;12.00;99.90
7684;DHT22;3884;48.616;12.872;2023-05-14T07:13:55;12.10;99.90
7684;DHT22;3884;48.616;12.872;2023-05-14T07:16:22;12.20;99.90
7684;DHT22;3884;48.616;12.872;2023-05-14T07:18:49;12.30;99.90
7684;DHT22;3884;48.616;12.872;2023-05-14T07:21:17;12.40;1.00
7684;DHT22;3884;48.616;12.872;2023-05-14T07:23:44;12.40;1.00
7684;DHT22;3884;48.616;12.872;2023-05-14T07:26:11;12.40;1.00
7684;DHT22;3884;48.616;12.872;2023-05-14T07:28:38;12.40;99.90
7684;DHT22;3884;48.616;12.872;2023-05-14T07:31:05;12.40;99.90
7684;DHT22;3884;48.616;12.872;2023-05-14T07:33:33;12.50;1.00
7684;DHT22;3884;48.616;12.872;2023-05-14T07:36:01;12.60;28.40
7684;DHT22;3884;48.616;12.872;2023-05-14T07:38:29;12.50;1.00
7684;DHT22;3884;48.616;12.872;2023-05-14T07:40:56;12.60;1.00
7684;DHT22;3884;48.616;12.872;2023-05-14T07:43:23;12.80;1.00
7684;DHT22;3884;48.616;12.872;2023-05-14T07:45:50;13.00;1.00
7684;DHT22;3884;48.616;12.872;2023-05-14T07:48:17;13.10;1.00
7684;DHT22;3884;48.616;12.872;2023-05-14T07:50:44;13.20;99.90
7684;DHT22;3884;48.616;12.872;2023-05-14T07:53:10;13.20;99.90
7684;DHT22;3884;48.616;12.872;2023-05-14T07:55:39;13.20;1.00
7684;DHT22;3884;48.616;12.872;2023-05-14T07:58:08;13.30;1.00
7684;DHT22;3884;48.616;12.872;2023-05-14T08:00:35;13.30;43.60
7684;DHT22;3884;48.616;12.872;2023-05-14T08:03:02;13.20;21.90
7684;DHT22;3884;48.616;12.872;2023-05-14T08:05:29;13.40;83.20
7684;DHT22;3884;48.616;12.872;2023-05-14T08:07:57;13.70;99.90
7684;DHT22;3884;48.616;12.872;2023-05-14T08:10:24;14.00;1.00
7684;DHT22;3884;48.616;12.872;2023-05-14T08:12:52;14.30;99.90
7684;DHT22;3884;48.616;12.872;2023-05-14T08:15:19;14.40;99.90
7684;DHT22;3884;48.616;12.872;2023-05-14T08:17:46;14.20;99.90
7684;DHT22;3884;48.616;12.872;2023-05-14T08:20:13;14.00;1.00
7684;DHT22;3884;48.616;12.872;2023-05-14T08:22:40;13.80;99.90
7684;DHT22;3884;48.616;12.872;2023-05-14T08:25:07;13.90;1.00
7684;DHT22;3884;48.616;12.872;2023-05-14T08:27:34;13.90;99.90
7684;DHT22;3884;48.616;12.872;2023-05-14T08:30:03;14.10;99.90
7684;DHT22;3884;48.616;12.872;2023-05-14T08:32:30;14.30;1.00
7684;DHT22;3884;48.616;12.872;2023-05-14T08:34:57;14.30;99.90
7684;DHT22;3884;48.616;12.872;2023-05-14T08:37:24;14.40;99.90
7684;DHT22;3884;48.616;12.872;2023-05-14T08:39:51;14.40;99.90
7684;DHT22;3884;48.616;12.872;2023-05-14T08:42:19;14.40;99.90
7684;DHT22;3884;48.616;12.872;2023-05-14T08:44:48;14.50;1.00
7684;DHT22;3884;48.616;12.872;2023-05-14T08:47:17;14.70;99.90
7684;DHT22;3884;48.616;12.872;2023-05-14T08:49:51;15.00;99.90
7684;DHT22;3884;48.616;12.872;2023-05-14T08:52:21;15.10;99.90
7684;DHT22;3884;48.616;12.872;2023-05-14T08:54:50;15.00;1.00
7684;DHT22;3884;48.616;12.872;2023-05-14T08:57:19;15.20;57.30
7684;DHT22;3884;48.616;12.872;2023-05-14T08:59:49;14.90;1.00
7684;DHT22;3884;48.616;12.872;2023-05-14T09:02:20;15.00;1.00
7684;DHT22;3884;48.616;12.872;2023-05-14T09:04:49;15.00;1.00
7684;DHT22;3884;48.616;12.872;2023-05-14T09:07:19;14.80;1.00
7684;DHT22;3884;48.616;12.872;2023-05-14T09:09:47;14.90;72.50
7684;DHT22;3884;48.616;12.872;2023-05-14T09:12:14;14.80;1.00
7684;DHT22;3884;48.616;12.872;2023-05-14T09:14:41;14.90;99.90
7684;DHT22;3884;48.616;12.872;2023-05-14T09:17:08;15.30;99.90
7684;DHT22;3884;48.616;12.872;2023-05-14T09:19:38;15.60;1.00
7684;DHT22;3884;48.616;12.872;2023-05-14T09:22:08;15.80;1.00
7684;DHT22;3884;48.616;12.872;2023-05-14T09:24:35;16.00;1.00
7684;DHT22;3884;48.616;12.872;2023-05-14T09:27:04;16.00;1.00
7684;DHT22;3884;48.616;12.872;2023-05-14T09:29:31;16.30;99.90
7684;DHT22;3884;48.616;12.872;2023-05-14T09:31:59;16.20;1.00
7684;DHT22;3884;48.616;12.872;2023-05-14T09:34:32;16.30;1.00
7684;DHT22;3884;48.616;12.872;2023-05-14T09:37:02;16.70;1.00
7684;DHT22;3884;48.616;12.872;2023-05-14T09:39:31;16.70;99.90
7684;DHT22;3884;48.616;12.872;2023-05-14T09:41:58;16.80;99.90
7684;DHT22;3884;48.616;12.872;2023-05-14T09:44:26;16.90;99.90
7684;DHT22;3884;48.616;12.872;2023-05-14T09:46:53;17.00;99.90
7684;DHT22;3884;48.616;12.872;2023-05-14T09:49:21;17.10;99.90
7684;DHT22;3884;48.616;12.872;2023-05-14T09:51:48;17.10;99.90
7684;DHT22;3884;48.616;12.872;2023-05-14T09:54:16;17.40;99.90
7684;DHT22;3884;48.616;12.872;2023-05-14T09:56:43;17.40;99.90
7684;DHT22;3884;48.616;12.872;2023-05-14T09:59:10;17.30;99.90
7684;DHT22;3884;48.616;12.872;2023-05-14T10:01:37;17.40;99.90
7684;DHT22;3884;48.616;12.872;2023-05-14T10:04:07;17.60;99.90
7684;DHT22;3884;48.616;12.872;2023-05-14T10:06:36;17.70;99.90
7684;DHT22;3884;48.616;12.872;2023-05-14T10:09:07;17.90;99.90
7684;DHT22;3884;48.616;12.872;2023-05-14T10:11:41;18.10;99.90
7684;DHT22;3884;48.616;12.872;2023-05-14T10:14:13;17.90;99.90
7684;DHT22;3884;48.616;12.872;2023-05-14T10:16:46;17.90;99.90
7684;DHT22;3884;48.616;12.872;2023-05-14T10:19:15;17.90;99.90
7684;DHT22;3884;48.616;12.872;2023-05-14T10:21:44;17.70;99.90
7684;DHT22;3884;48.616;12.872;2023-05-14T10:24:13;17.80;99.90
7684;DHT22;3884;48.616;12.872;2023-05-14T10:26:42;17.90;99.90
7684;DHT22;3884;48.616;12.872;2023-05-14T10:29:09;17.80;99.90
7684;DHT22;3884;48.616;12.872;2023-05-14T10:31:47;17.90;99.90
7684;DHT22;3884;48.616;12.872;2023-05-14T10:34:31;17.50;99.90
7684;DHT22;3884;48.616;12.872;2023-05-14T10:36:59;17.30;99.90
7684;DHT22;3884;48.616;12.872;2023-05-14T10:39:48;17.40;99.90
7684;DHT22;3884;48.616;12.872;2023-05-14T10:42:18;17.60;99.90
7684;DHT22;3884;48.616;12.872;2023-05-14T10:44:53;17.80;99.90
7684;DHT22;3884;48.616;12.872;2023-05-14T10:47:22;17.80;99.90
7684;DHT22;3884;48.616;12.872;2023-05-14T10:49:52;18.00;99.90
7684;DHT22;3884;48.616;12.872;2023-05-14T10:52:20;18.10;99.90
7684;DHT22;3884;48.616;12.872;2023-05-14T10:54:52;18.30;99.90
7684;DHT22;3884;48.616;12.872;2023-05-14T10:57:22;18.60;99.90
7684;DHT22;3884;48.616;12.872;2023-05-14T10:59:51;18.80;99.90
7684;DHT22;3884;48.616;12.872;2023-05-14T11:02:24;18.90;83.00
7684;DHT22;3884;48.616;12.872;2023-05-14T11:04:55;18.60;1.00
7684;DHT22;3884;48.616;12.872;2023-05-14T11:07:26;18.70;1.00
7684;DHT22;3884;48.616;12.872;2023-05-14T11:09:58;18.60;1.00
7684;DHT22;3884;48.616;12.872;2023-05-14T11:12:28;18.50;1.00
7684;DHT22;3884;48.616;12.872;2023-05-14T11:14:56;18.40;1.00
7684;DHT22;3884;48.616;12.872;2023-05-14T11:17:25;18.50;1.00
7684;DHT22;3884;48.616;12.872;2023-05-14T11:19:52;18.50;1.00
7684;DHT22;3884;48.616;12.872;2023-05-14T11:22:19;18.80;1.00
7684;DHT22;3884;48.616;12.872;2023-05-14T11:24:46;18.90;1.00
7684;DHT22;3884;48.616;12.872;2023-05-14T11:27:13;19.00;1.00
7684;DHT22;3884;48.616;12.872;2023-05-14T11:29:44;19.20;1.00
7684;DHT22;3884;48.616;12.872;2023-05-14T11:32:12;19.20;1.00
7684;DHT22;3884;48.616;12.872;2023-05-14T11:34:39;19.10;1.00
7684;DHT22;3884;48.616;12.872;2023-05-14T11:37:07;19.20;1.00
7684;DHT22;3884;48.616;12.872;2023-05-14T11:39:35;19.10;1.00
7684;DHT22;3884;48.616;12.872;2023-05-14T11:42:04;19.00;1.00
7684;DHT22;3884;48.616;12.872;2023-05-14T11:44:31;19.10;1.00
7684;DHT22;3884;48.616;12.872;2023-05-14T11:46:59;19.10;1.00
7684;DHT22;3884;48.616;12.872;2023-05-14T11:49:27;18.70;1.00
7684;DHT22;3884;48.616;12.872;2023-05-14T11:51:57;18.40;1.00
7684;DHT22;3884;48.616;12.872;2023-05-14T11:54:25;18.40;1.00
7684;DHT22;3884;48.616;12.872;2023-05-14T11:56:53;18.10;1.00
7684;DHT22;3884;48.616;12.872;2023-05-14T11:59:22;18.10;1.00
7684;DHT22;3884;48.616;12.872;2023-05-14T12:01:50;18.50;1.00
7684;DHT22;3884;48.616;12.872;2023-05-14T12:04:18;18.80;1.00
7684;DHT22;3884;48.616;12.872;2023-05-14T12:06:47;18.90;1.00
7684;DHT22;3884;48.616;12.872;2023-05-14T12:09:15;19.00;1.00
7684;DHT22;3884;48.616;12.872;2023-05-14T12:11:43;19.00;1.00
7684;DHT22;3884;48.616;12.872;2023-05-14T12:14:11;18.70;1.00
7684;DHT22;3884;48.616;12.872;2023-05-14T12:16:40;18.80;1.00
7684;DHT22;3884;48.616;12.872;2023-05-14T12:19:09;18.70;1.00
7684;DHT22;3884;48.616;12.872;2023-05-14T12:21:38;18.60;1.00
7684;DHT22;3884;48.616;12.872;2023-05-14T12:24:09;18.40;1.00
7684;DHT22;3884;48.616;12.872;2023-05-14T12:26:36;18.20;1.00
7684;DHT22;3884;48.616;12.872;2023-05-14T12:29:04;18.10;1.00
7684;DHT22;3884;48.616;12.872;2023-05-14T12:31:33;17.60;1.00
7684;DHT22;3884;48.616;12.872;2023-05-14T12:34:01;17.60;1.00
7684;DHT22;3884;48.616;12.872;2023-05-14T12:36:28;17.60;1.00
7684;DHT22;3884;48.616;12.872;2023-05-14T12:38:59;17.70;1.00
7684;DHT22;3884;48.616;12.872;2023-05-14T12:41:28;17.60;1.00
7684;DHT22;3884;48.616;12.872;2023-05-14T12:43:56;17.20;1.00
7684;DHT22;3884;48.616;12.872;2023-05-14T12:46:24;16.90;1.00
7684;DHT22;3884;48.616;12.872;2023-05-14T12:48:52;16.20;1.00
7684;DHT22;3884;48.616;12.872;2023-05-14T12:51:19;15.70;1.00
7684;DHT22;3884;48.616;12.872;2023-05-14T12:53:46;15.20;1.00
7684;DHT22;3884;48.616;12.872;2023-05-14T12:56:15;14.90;52.20
7684;DHT22;3884;48.616;12.872;2023-05-14T12:58:42;14.80;99.90
7684;DHT22;3884;48.616;12.872;2023-05-14T13:01:08;14.70;99.90
7684;DHT22;3884;48.616;12.872;2023-05-14T13:03:35;14.60;99.90
7684;DHT22;3884;48.616;12.872;2023-05-14T13:06:02;14.30;1.00
7684;DHT22;3884;48.616;12.872;2023-05-14T13:08:29;14.10;99.90
7684;DHT22;3884;48.616;12.872;2023-05-14T13:10:56;13.80;1.00
7684;DHT22;3884;48.616;12.872;2023-05-14T13:13:24;13.50;99.90
7684;DHT22;3884;48.616;12.872;2023-05-14T13:15:52;13.40;56.50
7684;DHT22;3884;48.616;12.872;2023-05-14T13:18:19;13.10;99.90
7684;DHT22;3884;48.616;12.872;2023-05-14T13:20:46;12.80;99.90
7684;DHT22;3884;48.616;12.872;2023-05-14T13:23:13;12.70;99.90
7684;DHT22;3884;48.616;12.872;2023-05-14T13:25:40;12.60;1.00
7684;DHT22;3884;48.616;12.872;2023-05-14T13:28:07;12.50;1.00
7684;DHT22;3884;48.616;12.872;2023-05-14T13:30:36;12.50;85.00
7684;DHT22;3884;48.616;12.872;2023-05-14T13:33:03;12.40;99.90
7684;DHT22;3884;48.616;12.872;2023-05-14T13:35:29;12.60;99.90
7684;DHT22;3884;48.616;12.872;2023-05-14T13:37:56;12.50;99.90
7684;DHT22;3884;48.616;12.872;2023-05-14T13:40:23;12.50;99.90
7684;DHT22;3884;48.616;12.872;2023-05-14T13:42:50;12.20;99.90
7684;DHT22;3884;48.616;12.872;2023-05-14T13:45:17;12.30;99.90
7684;DHT22;3884;48.616;12.872;2023-05-14T13:47:45;12.20;99.90
7684;DHT22;3884;48.616;12.872;2023-05-14T13:50:12;12.10;99.90
7684;DHT22;3884;48.616;12.872;2023-05-14T13:52:39;12.10;99.90
7684;DHT22;3884;48.616;12.872;2023-05-14T13:55:07;12.00;99.90
7684;DHT22;3884;48.616;12.872;2023-05-14T13:57:33;12.00;99.90
7684;DHT22;3884;48.616;12.872;2023-05-14T14:00:00;12.00;99.90
7684;DHT22;3884;48.616;12.872;2023-05-14T14:02:29;11.90;99.90
7684;DHT22;3884;48.616;12.872;2023-05-14T14:04:58;12.00;99.90
7684;DHT22;3884;48.616;12.872;2023-05-14T14:07:24;12.20;99.90
7684;DHT22;3884;48.616;12.872;2023-05-14T14:09:51;12.30;99.90
7684;DHT22;3884;48.616;12.872;2023-05-14T14:12:18;12.40;99.90
7684;DHT22;3884;48.616;12.872;2023-05-14T14:14:45;12.40;99.90
7684;DHT22;3884;48.616;12.872;2023-05-14T14:17:12;12.40;99.90
7684;DHT22;3884;48.616;12.872;2023-05-14T14:19:39;12.50;99.90
7684;DHT22;3884;48.616;12.872;2023-05-14T14:22:07;12.70;99.90
7684;DHT22;3884;48.616;12.872;2023-05-14T14:24:34;12.80;99.90
7684;DHT22;3884;48.616;12.872;2023-05-14T14:27:01;12.90;99.90
7684;DHT22;3884;48.616;12.872;2023-05-14T14:29:28;13.00;99.90
7684;DHT22;3884;48.616;12.872;2023-05-14T14:31:55;13.10;99.90
7684;DHT22;3884;48.616;12.872;2023-05-14T14:34:22;13.20;99.90
7684;DHT22;3884;48.616;12.872;2023-05-14T14:36:49;13.30;99.90
7684;DHT22;3884;48.616;12.872;2023-05-14T14:39:17;13.40;99.90
7684;DHT22;3884;48.616;12.872;2023-05-14T14:41:44;13.50;99.90
7684;DHT22;3884;48.616;12.872;2023-05-14T14:44:12;13.50;99.90
7684;DHT22;3884;48.616;12.872;2023-05-14T14:46:39;13.50;99.90
7684;DHT22;3884;48.616;12.872;2023-05-14T14:49:07;13.50;99.90
7684;DHT22;3884;48.616;12.872;2023-05-14T14:51:34;13.60;99.90
7684;DHT22;3884;48.616;12.872;2023-05-14T14:54:01;13.60;99.90
7684;DHT22;3884;48.616;12.872;2023-05-14T14:56:31;13.60;99.90
7684;DHT22;3884;48.616;12.872;2023-05-14T14:58:57;13.60;99.90
7684;DHT22;3884;48.616;12.872;2023-05-14T15:01:24;13.60;99.90
7684;DHT22;3884;48.616;12.872;2023-05-14T15:03:51;13.60;99.90
7684;DHT22;3884;48.616;12.872;2023-05-14T15:06:19;13.70;99.90
7684;DHT22;3884;48.616;12.872;2023-05-14T15:08:46;13.80;99.90
7684;DHT22;3884;48.616;12.872;2023-05-14T15:11:13;13.70;99.90
7684;DHT22;3884;48.616;12.872;2023-05-14T15:13:41;13.70;99.90
7684;DHT22;3884;48.616;12.872;2023-05-14T15:16:08;13.80;99.90
7684;DHT22;3884;48.616;12.872;2023-05-14T15:18:35;13.80;99.90
7684;DHT22;3884;48.616;12.872;2023-05-14T15:21:02;13.80;99.90
7684;DHT22;3884;48.616;12.872;2023-05-14T15:23:29;13.60;99.90
7684;DHT22;3884;48.616;12.872;2023-05-14T15:25:56;13.50;99.90
7684;DHT22;3884;48.616;12.872;2023-05-14T15:28:23;13.40;99.90
7684;DHT22;3884;48.616;12.872;2023-05-14T15:30:51;13.40;99.90
7684;DHT22;3884;48.616;12.872;2023-05-14T15:33:19;13.20;99.90
7684;DHT22;3884;48.616;12.872;2023-05-14T15:35:46;13.10;99.90
7684;DHT22;3884;48.616;12.872;2023-05-14T15:38:13;13.00;99.90
7684;DHT22;3884;48.616;12.872;2023-05-14T15:40:39;13.00;99.90
7684;DHT22;3884;48.616;12.872;2023-05-14T15:43:06;13.00;99.90
7684;DHT22;3884;48.616;12.872;2023-05-14T15:45:33;13.00;99.90
7684;DHT22;3884;48.616;12.872;2023-05-14T15:48:02;13.00;99.90
7684;DHT22;3884;48.616;12.872;2023-05-14T15:50:29;12.90;99.90
7684;DHT22;3884;48.616;12.872;2023-05-14T15:52:56;12.80;99.90
7684;DHT22;3884;48.616;12.872;2023-05-14T15:55:23;12.80;99.90
7684;DHT22;3884;48.616;12.872;2023-05-14T15:57:50;12.80;99.90
7684;DHT22;3884;48.616;12.872;2023-05-14T16:00:17;12.90;99.90